sensor_id;sensor_type;location;lat;lon;timestamp;temperature;humidity
24144;DHT22;12307;50.828;6.080;2022-12-20T00:01:12;19.70;52.40
24144;DHT22;12307;50.828;6.080;2022-12-20T00:03:38;19.70;52.40
24144;DHT22;12307;50.828;6.080;2022-12-20T00:06:04;19.70;52.40
24144;DHT22;12307;50.828;6.080;2022-12-20T00:08:31;19.70;52.50
24144;DHT22;12307;50.828;6.080;2022-12-20T00:10:59;19.70;52.50
24144;DHT22;12307;50.828;6.080;2022-12-20T00:13:25;19.70;52.40
24144;DHT22;12307;50.828;6.080;2022-12-20T00:16:02;19.70;52.40
24144;DHT22;12307;50.828;6.080;2022-12-20T00:18:28;19.70;52.40
24144;DHT22;12307;50.828;6.080;2022-12-20T00:20:57;19.70;52.40
24144;DHT22;12307;50.828;6.080;2022-12-20T00:23:22;19.70;52.40
24144;DHT22;12307;50.828;6.080;2022-12-20T00:25:48;19.70;52.40
24144;DHT22;12307;50.828;6.080;2022-12-20T00:28:14;19.70;52.40
24144;DHT22;12307;50.828;6.080;2022-12-20T00:30:39;19.70;52.50
24144;DHT22;12307;50.828;6.080;2022-12-20T00:33:06;19.70;52.50
24144;DHT22;12307;50.828;6.080;2022-12-20T00:35:32;19.70;52.40
24144;DHT22;12307;50.828;6.080;2022-12-20T00:37:58;19.70;52.40
24144;DHT22;12307;50.828;6.080;2022-12-20T00:40:23;19.70;52.40
24144;DHT22;12307;50.828;6.080;2022-12-20T00:42:49;19.70;52.40
24144;DHT22;12307;50.828;6.080;2022-12-20T00:45:15;19.70;52.40
24144;DHT22;12307;50.828;6.080;2022-12-20T00:47:41;19.70;52.40
24144;DHT22;12307;50.828;6.080;2022-12-20T00:50:10;19.80;52.50
24144;DHT22;12307;50.828;6.080;2022-12-20T00:52:36;19.70;52.40
24144;DHT22;12307;50.828;6.080;2022-12-20T00:55:02;19.70;52.40
24144;DHT22;12307;50.828;6.080;2022-12-20T00:57:27;19.80;52.50
24144;DHT22;12307;50.828;6.080;2022-12-20T00:59:53;19.70;52.40
24144;DHT22;12307;50.828;6.080;2022-12-20T01:02:19;19.70;52.40
24144;DHT22;12307;50.828;6.080;2022-12-20T01:04:44;19.70;52.40
24144;DHT22;12307;50.828;6.080;2022-12-20T01:07:11;19.70;52.50
24144;DHT22;12307;50.828;6.080;2022-12-20T01:09:37;19.80;52.50
24144;DHT22;12307;50.828;6.080;2022-12-20T01:12:03;19.70;52.40
24144;DHT22;12307;50.828;6.080;2022-12-20T01:14:29;19.70;52.50
24144;DHT22;12307;50.828;6.080;2022-12-20T01:16:54;19.70;52.40
24144;DHT22;12307;50.828;6.080;2022-12-20T01:19:20;19.70;52.40
24144;DHT22;12307;50.828;6.080;2022-12-20T01:21:46;19.70;52.40
24144;DHT22;12307;50.828;6.080;2022-12-20T01:24:14;19.80;52.50
24144;DHT22;12307;50.828;6.080;2022-12-20T01:26:41;19.80;52.60
24144;DHT22;12307;50.828;6.080;2022-12-20T01:29:06;19.80;52.50
24144;DHT22;12307;50.828;6.080;2022-12-20T01:31:32;19.70;52.50
24144;DHT22;12307;50.828;6.080;2022-12-20T01:33:58;19.80;52.50
24144;DHT22;12307;50.828;6.080;2022-12-20T01:36:27;19.80;52.60
24144;DHT22;12307;50.828;6.080;2022-12-20T01:38:55;19.70;52.50
24144;DHT22;12307;50.828;6.080;2022-12-20T01:41:23;19.70;52.50
24144;DHT22;12307;50.828;6.080;2022-12-20T01:43:51;19.70;52.50
24144;DHT22;12307;50.828;6.080;2022-12-20T01:46:18;19.70;52.50
24144;DHT22;12307;50.828;6.080;2022-12-20T01:48:48;19.70;52.50
24144;DHT22;12307;50.828;6.080;2022-12-20T01:51:15;19.70;52.50
24144;DHT22;12307;50.828;6.080;2022-12-20T01:53:42;19.70;52.50
24144;DHT22;12307;50.828;6.080;2022-12-20T01:56:08;19.70;52.40
24144;DHT22;12307;50.828;6.080;2022-12-20T01:58:38;19.70;52.50
24144;DHT22;12307;50.828;6.080;2022-12-20T02:01:05;19.70;52.50
24144;DHT22;12307;50.828;6.080;2022-12-20T02:03:31;19.80;52.60
24144;DHT22;12307;50.828;6.080;2022-12-20T02:06:12;19.70;52.50
24144;DHT22;12307;50.828;6.080;2022-12-20T02:08:38;19.80;52.60
24144;DHT22;12307;50.828;6.080;2022-12-20T02:11:11;19.70;52.60
24144;DHT22;12307;50.828;6.080;2022-12-20T02:13:46;19.70;52.60
24144;DHT22;12307;50.828;6.080;2022-12-20T02:16:20;19.80;52.70
24144;DHT22;12307;50.828;6.080;2022-12-20T02:18:52;19.70;52.60
24144;DHT22;12307;50.828;6.080;2022-12-20T02:21:30;19.70;52.60
24144;DHT22;12307;50.828;6.080;2022-12-20T02:27:23;19.70;52.60
24144;DHT22;12307;50.828;6.080;2022-12-20T02:30:05;19.80;52.60
24144;DHT22;12307;50.828;6.080;2022-12-20T02:32:35;19.70;52.60
24144;DHT22;12307;50.828;6.080;2022-12-20T02:35:02;19.80;52.60
24144;DHT22;12307;50.828;6.080;2022-12-20T02:37:29;19.80;52.60
24144;DHT22;12307;50.828;6.080;2022-12-20T02:39:54;19.80;52.70
24144;DHT22;12307;50.828;6.080;2022-12-20T02:42:22;19.80;52.80
24144;DHT22;12307;50.828;6.080;2022-12-20T02:44:53;19.80;52.70
24144;DHT22;12307;50.828;6.080;2022-12-20T02:47:44;19.80;52.70
24144;DHT22;12307;50.828;6.080;2022-12-20T02:50:12;19.80;52.80
24144;DHT22;12307;50.828;6.080;2022-12-20T02:52:39;19.80;52.70
24144;DHT22;12307;50.828;6.080;2022-12-20T02:55:05;19.80;52.80
24144;DHT22;12307;50.828;6.080;2022-12-20T02:57:37;19.80;52.70
24144;DHT22;12307;50.828;6.080;2022-12-20T03:00:10;19.80;52.80
24144;DHT22;12307;50.828;6.080;2022-12-20T03:02:37;19.80;52.80
24144;DHT22;12307;50.828;6.080;2022-12-20T03:05:24;19.80;52.80
24144;DHT22;12307;50.828;6.080;2022-12-20T03:07:51;19.80;52.80
24144;DHT22;12307;50.828;6.080;2022-12-20T03:10:18;19.80;52.80
24144;DHT22;12307;50.828;6.080;2022-12-20T03:12:44;19.70;52.70
24144;DHT22;12307;50.828;6.080;2022-12-20T03:15:10;19.80;52.80
24144;DHT22;12307;50.828;6.080;2022-12-20T03:17:36;19.80;52.90
24144;DHT22;12307;50.828;6.080;2022-12-20T03:20:02;19.70;53.10
24144;DHT22;12307;50.828;6.080;2022-12-20T03:22:32;19.80;52.80
24144;DHT22;12307;50.828;6.080;2022-12-20T03:24:58;19.70;52.80
24144;DHT22;12307;50.828;6.080;2022-12-20T03:27:23;19.80;52.90
24144;DHT22;12307;50.828;6.080;2022-12-20T03:29:50;19.80;52.80
24144;DHT22;12307;50.828;6.080;2022-12-20T03:32:16;19.80;52.80
24144;DHT22;12307;50.828;6.080;2022-12-20T03:34:41;19.80;52.80
24144;DHT22;12307;50.828;6.080;2022-12-20T03:37:07;19.80;52.80
24144;DHT22;12307;50.828;6.080;2022-12-20T03:39:34;19.80;52.80
24144;DHT22;12307;50.828;6.080;2022-12-20T03:42:00;19.80;52.90
24144;DHT22;12307;50.828;6.080;2022-12-20T03:44:25;19.80;52.90
24144;DHT22;12307;50.828;6.080;2022-12-20T03:46:51;19.80;52.90
24144;DHT22;12307;50.828;6.080;2022-12-20T03:49:17;19.80;52.90
24144;DHT22;12307;50.828;6.080;2022-12-20T03:51:43;19.80;52.90
24144;DHT22;12307;50.828;6.080;2022-12-20T03:54:08;19.80;52.90
24144;DHT22;12307;50.828;6.080;2022-12-20T03:56:35;19.80;52.90
24144;DHT22;12307;50.828;6.080;2022-12-20T03:59:01;19.80;52.90
24144;DHT22;12307;50.828;6.080;2022-12-20T04:01:28;19.80;52.90
24144;DHT22;12307;50.828;6.080;2022-12-20T04:03:54;19.80;52.90
24144;DHT22;12307;50.828;6.080;2022-12-20T04:06:21;19.80;53.00
24144;DHT22;12307;50.828;6.080;2022-12-20T04:08:47;19.80;52.90
24144;DHT22;12307;50.828;6.080;2022-12-20T04:11:13;19.80;53.00
24144;DHT22;12307;50.828;6.080;2022-12-20T04:13:43;19.80;52.90
24144;DHT22;12307;50.828;6.080;2022-12-20T04:16:09;19.80;52.90
24144;DHT22;12307;50.828;6.080;2022-12-20T04:18:35;19.80;53.00
24144;DHT22;12307;50.828;6.080;2022-12-20T04:21:01;19.80;52.90
24144;DHT22;12307;50.828;6.080;2022-12-20T04:23:27;19.80;53.00
24144;DHT22;12307;50.828;6.080;2022-12-20T04:25:52;19.80;52.90
24144;DHT22;12307;50.828;6.080;2022-12-20T04:28:18;19.80;53.00
24144;DHT22;12307;50.828;6.080;2022-12-20T04:30:45;19.80;52.90
24144;DHT22;12307;50.828;6.080;2022-12-20T04:33:11;19.80;53.00
24144;DHT22;12307;50.828;6.080;2022-12-20T04:35:37;19.80;53.00
24144;DHT22;12307;50.828;6.080;2022-12-20T04:38:02;19.80;53.00
24144;DHT22;12307;50.828;6.080;2022-12-20T04:40:28;19.80;53.00
24144;DHT22;12307;50.828;6.080;2022-12-20T04:42:54;19.70;52.90
24144;DHT22;12307;50.828;6.080;2022-12-20T04:45:19;19.80;53.00
24144;DHT22;12307;50.828;6.080;2022-12-20T04:47:46;19.80;53.00
24144;DHT22;12307;50.828;6.080;2022-12-20T04:50:12;19.80;53.00
24144;DHT22;12307;50.828;6.080;2022-12-20T04:52:38;19.80;53.00
24144;DHT22;12307;50.828;6.080;2022-12-20T04:55:22;19.80;53.00
24144;DHT22;12307;50.828;6.080;2022-12-20T04:57:48;19.80;53.00
24144;DHT22;12307;50.828;6.080;2022-12-20T05:00:14;19.80;53.00
24144;DHT22;12307;50.828;6.080;2022-12-20T05:02:40;19.80;53.00
24144;DHT22;12307;50.828;6.080;2022-12-20T05:05:08;19.80;53.00
24144;DHT22;12307;50.828;6.080;2022-12-20T05:07:34;19.80;53.00
24144;DHT22;12307;50.828;6.080;2022-12-20T05:09:59;19.80;53.00
24144;DHT22;12307;50.828;6.080;2022-12-20T05:12:25;19.80;53.00
24144;DHT22;12307;50.828;6.080;2022-12-20T05:14:51;19.80;53.00
24144;DHT22;12307;50.828;6.080;2022-12-20T05:17:16;19.80;53.00
24144;DHT22;12307;50.828;6.080;2022-12-20T05:19:42;19.80;53.00
24144;DHT22;12307;50.828;6.080;2022-12-20T05:22:09;19.80;53.00
24144;DHT22;12307;50.828;6.080;2022-12-20T05:24:54;19.80;53.00
24144;DHT22;12307;50.828;6.080;2022-12-20T05:27:38;19.80;53.00
24144;DHT22;12307;50.828;6.080;2022-12-20T05:30:05;19.80;53.00
24144;DHT22;12307;50.828;6.080;2022-12-20T05:32:31;19.80;53.00
24144;DHT22;12307;50.828;6.080;2022-12-20T05:34:56;19.80;53.00
24144;DHT22;12307;50.828;6.080;2022-12-20T05:37:23;19.80;53.00
24144;DHT22;12307;50.828;6.080;2022-12-20T05:39:49;19.80;53.00
24144;DHT22;12307;50.828;6.080;2022-12-20T05:42:15;19.80;53.20
24144;DHT22;12307;50.828;6.080;2022-12-20T05:44:41;19.80;53.00
24144;DHT22;12307;50.828;6.080;2022-12-20T05:47:06;19.80;53.00
24144;DHT22;12307;50.828;6.080;2022-12-20T05:49:32;19.80;53.00
24144;DHT22;12307;50.828;6.080;2022-12-20T05:51:59;19.80;53.00
24144;DHT22;12307;50.828;6.080;2022-12-20T05:54:26;19.80;53.00
24144;DHT22;12307;50.828;6.080;2022-12-20T05:56:52;19.80;53.00
24144;DHT22;12307;50.828;6.080;2022-12-20T05:59:17;19.80;53.00
24144;DHT22;12307;50.828;6.080;2022-12-20T06:01:43;19.80;53.00
24144;DHT22;12307;50.828;6.080;2022-12-20T06:04:09;19.80;53.00
24144;DHT22;12307;50.828;6.080;2022-12-20T06:06:34;19.80;53.00
24144;DHT22;12307;50.828;6.080;2022-12-20T06:09:00;19.80;53.00
24144;DHT22;12307;50.828;6.080;2022-12-20T06:11:27;19.80;53.70
24144;DHT22;12307;50.828;6.080;2022-12-20T06:13:53;19.80;53.00
24144;DHT22;12307;50.828;6.080;2022-12-20T06:16:18;19.80;53.00
24144;DHT22;12307;50.828;6.080;2022-12-20T06:18:46;19.80;53.00
24144;DHT22;12307;50.828;6.080;2022-12-20T06:21:11;19.80;53.00
24144;DHT22;12307;50.828;6.080;2022-12-20T06:23:37;19.80;53.00
24144;DHT22;12307;50.828;6.080;2022-12-20T06:26:04;19.80;53.00
24144;DHT22;12307;50.828;6.080;2022-12-20T06:28:31;19.80;53.00
24144;DHT22;12307;50.828;6.080;2022-12-20T06:30:57;19.80;53.00
24144;DHT22;12307;50.828;6.080;2022-12-20T06:33:23;19.80;53.00
24144;DHT22;12307;50.828;6.080;2022-12-20T06:35:49;19.80;53.00
24144;DHT22;12307;50.828;6.080;2022-12-20T06:38:15;19.80;53.60
24144;DHT22;12307;50.828;6.080;2022-12-20T06:40:40;19.80;53.00
24144;DHT22;12307;50.828;6.080;2022-12-20T06:43:06;19.80;53.00
24144;DHT22;12307;50.828;6.080;2022-12-20T06:45:33;19.80;53.00
24144;DHT22;12307;50.828;6.080;2022-12-20T06:48:02;19.80;53.00
24144;DHT22;12307;50.828;6.080;2022-12-20T06:50:27;19.80;53.00
24144;DHT22;12307;50.828;6.080;2022-12-20T06:52:53;19.80;53.00
24144;DHT22;12307;50.828;6.080;2022-12-20T06:55:19;19.80;53.00
24144;DHT22;12307;50.828;6.080;2022-12-20T06:57:44;19.80;53.00
24144;DHT22;12307;50.828;6.080;2022-12-20T07:00:11;19.80;53.00
24144;DHT22;12307;50.828;6.080;2022-12-20T07:02:38;19.80;53.00
24144;DHT22;12307;50.828;6.080;2022-12-20T07:05:05;19.80;53.00
24144;DHT22;12307;50.828;6.080;2022-12-20T07:07:31;19.80;53.00
24144;DHT22;12307;50.828;6.080;2022-12-20T07:09:56;19.80;53.00
24144;DHT22;12307;50.828;6.080;2022-12-20T07:12:23;19.80;53.00
24144;DHT22;12307;50.828;6.080;2022-12-20T07:14:49;19.80;53.00
24144;DHT22;12307;50.828;6.080;2022-12-20T07:17:15;19.80;53.00
24144;DHT22;12307;50.828;6.080;2022-12-20T07:19:42;19.80;53.00
24144;DHT22;12307;50.828;6.080;2022-12-20T07:22:08;19.80;53.00
24144;DHT22;12307;50.828;6.080;2022-12-20T07:24:34;19.80;53.10
24144;DHT22;12307;50.828;6.080;2022-12-20T07:26:59;19.80;53.00
24144;DHT22;12307;50.828;6.080;2022-12-20T07:29:25;19.80;53.00
24144;DHT22;12307;50.828;6.080;2022-12-20T07:31:51;19.80;53.10
24144;DHT22;12307;50.828;6.080;2022-12-20T07:34:17;19.80;53.10
24144;DHT22;12307;50.828;6.080;2022-12-20T07:36:44;19.80;53.10
24144;DHT22;12307;50.828;6.080;2022-12-20T07:39:10;19.80;53.10
24144;DHT22;12307;50.828;6.080;2022-12-20T07:41:36;19.80;53.10
24144;DHT22;12307;50.828;6.080;2022-12-20T07:44:01;19.80;53.10
24144;DHT22;12307;50.828;6.080;2022-12-20T07:46:27;19.80;53.10
24144;DHT22;12307;50.828;6.080;2022-12-20T07:48:53;19.80;53.00
24144;DHT22;12307;50.828;6.080;2022-12-20T07:51:23;19.80;53.10
24144;DHT22;12307;50.828;6.080;2022-12-20T07:53:52;19.80;53.10
24144;DHT22;12307;50.828;6.080;2022-12-20T07:56:20;19.80;53.00
24144;DHT22;12307;50.828;6.080;2022-12-20T07:58:47;19.80;53.10
24144;DHT22;12307;50.828;6.080;2022-12-20T08:01:15;19.80;53.10
24144;DHT22;12307;50.828;6.080;2022-12-20T08:03:44;19.80;53.00
24144;DHT22;12307;50.828;6.080;2022-12-20T08:06:11;19.80;53.00
24144;DHT22;12307;50.828;6.080;2022-12-20T08:08:40;19.80;53.00
24144;DHT22;12307;50.828;6.080;2022-12-20T08:11:10;19.90;53.10
24144;DHT22;12307;50.828;6.080;2022-12-20T08:13:36;19.80;53.00
24144;DHT22;12307;50.828;6.080;2022-12-20T08:16:02;19.80;53.00
24144;DHT22;12307;50.828;6.080;2022-12-20T08:18:28;19.80;53.00
24144;DHT22;12307;50.828;6.080;2022-12-20T08:20:53;19.80;53.00
24144;DHT22;12307;50.828;6.080;2022-12-20T08:23:19;19.90;53.10
24144;DHT22;12307;50.828;6.080;2022-12-20T08:25:45;19.80;53.00
24144;DHT22;12307;50.828;6.080;2022-12-20T08:28:12;19.80;53.00
24144;DHT22;12307;50.828;6.080;2022-12-20T08:30:38;19.80;53.10
24144;DHT22;12307;50.828;6.080;2022-12-20T08:33:03;19.90;53.20
24144;DHT22;12307;50.828;6.080;2022-12-20T08:35:30;19.80;53.30
24144;DHT22;12307;50.828;6.080;2022-12-20T08:37:56;19.80;53.30
24144;DHT22;12307;50.828;6.080;2022-12-20T08:40:21;19.80;53.30
24144;DHT22;12307;50.828;6.080;2022-12-20T08:42:47;19.80;53.40
24144;DHT22;12307;50.828;6.080;2022-12-20T08:45:14;19.80;53.40
24144;DHT22;12307;50.828;6.080;2022-12-20T08:47:40;19.90;53.50
24144;DHT22;12307;50.828;6.080;2022-12-20T08:50:07;19.90;53.50
24144;DHT22;12307;50.828;6.080;2022-12-20T08:52:32;19.90;53.40
24144;DHT22;12307;50.828;6.080;2022-12-20T08:54:58;19.90;53.40
24144;DHT22;12307;50.828;6.080;2022-12-20T08:57:24;19.90;53.40
24144;DHT22;12307;50.828;6.080;2022-12-20T08:59:50;19.90;53.40
24144;DHT22;12307;50.828;6.080;2022-12-20T09:02:16;19.90;53.50
24144;DHT22;12307;50.828;6.080;2022-12-20T09:04:42;20.00;53.60
24144;DHT22;12307;50.828;6.080;2022-12-20T09:07:09;20.00;53.60
24144;DHT22;12307;50.828;6.080;2022-12-20T09:09:35;20.00;53.60
24144;DHT22;12307;50.828;6.080;2022-12-20T09:12:00;20.00;53.60
24144;DHT22;12307;50.828;6.080;2022-12-20T09:14:26;20.10;53.60
24144;DHT22;12307;50.828;6.080;2022-12-20T09:16:52;20.10;53.50
24144;DHT22;12307;50.828;6.080;2022-12-20T09:19:19;20.10;53.50
24144;DHT22;12307;50.828;6.080;2022-12-20T09:21:44;20.10;53.50
24144;DHT22;12307;50.828;6.080;2022-12-20T09:24:10;20.10;53.50
24144;DHT22;12307;50.828;6.080;2022-12-20T09:26:36;20.10;53.50
24144;DHT22;12307;50.828;6.080;2022-12-20T09:29:02;20.10;53.50
24144;DHT22;12307;50.828;6.080;2022-12-20T09:31:28;20.10;53.50
24144;DHT22;12307;50.828;6.080;2022-12-20T09:33:55;20.10;53.60
24144;DHT22;12307;50.828;6.080;2022-12-20T09:36:24;20.10;53.60
24144;DHT22;12307;50.828;6.080;2022-12-20T09:38:50;20.10;53.70
24144;DHT22;12307;50.828;6.080;2022-12-20T09:41:24;20.20;53.80
24144;DHT22;12307;50.828;6.080;2022-12-20T09:43:51;20.20;53.70
24144;DHT22;12307;50.828;6.080;2022-12-20T09:46:17;20.20;53.70
24144;DHT22;12307;50.828;6.080;2022-12-20T09:48:43;20.20;53.70
24144;DHT22;12307;50.828;6.080;2022-12-20T09:51:16;20.20;53.70
24144;DHT22;12307;50.828;6.080;2022-12-20T09:53:56;20.30;53.80
24144;DHT22;12307;50.828;6.080;2022-12-20T09:56:27;20.40;53.70
24144;DHT22;12307;50.828;6.080;2022-12-20T09:59:00;20.40;53.60
24144;DHT22;12307;50.828;6.080;2022-12-20T10:01:28;20.50;53.60
24144;DHT22;12307;50.828;6.080;2022-12-20T10:03:56;20.50;53.50
24144;DHT22;12307;50.828;6.080;2022-12-20T10:06:28;20.50;53.50
24144;DHT22;12307;50.828;6.080;2022-12-20T10:08:59;20.40;53.50
24144;DHT22;12307;50.828;6.080;2022-12-20T10:11:54;20.50;53.60
24144;DHT22;12307;50.828;6.080;2022-12-20T10:14:44;20.50;53.60
24144;DHT22;12307;50.828;6.080;2022-12-20T10:17:16;20.50;53.60
24144;DHT22;12307;50.828;6.080;2022-12-20T10:20:05;20.50;53.60
24144;DHT22;12307;50.828;6.080;2022-12-20T10:22:39;20.60;53.70
24144;DHT22;12307;50.828;6.080;2022-12-20T10:25:16;20.60;53.60
24144;DHT22;12307;50.828;6.080;2022-12-20T10:27:43;20.60;53.60
24144;DHT22;12307;50.828;6.080;2022-12-20T10:30:13;20.60;53.60
24144;DHT22;12307;50.828;6.080;2022-12-20T10:32:39;20.70;53.60
24144;DHT22;12307;50.828;6.080;2022-12-20T10:35:23;20.70;53.60
24144;DHT22;12307;50.828;6.080;2022-12-20T10:37:57;20.70;53.50
24144;DHT22;12307;50.828;6.080;2022-12-20T10:40:28;20.80;53.50
24144;DHT22;12307;50.828;6.080;2022-12-20T10:42:55;20.80;53.60
24144;DHT22;12307;50.828;6.080;2022-12-20T10:45:28;20.80;53.60
24144;DHT22;12307;50.828;6.080;2022-12-20T10:47:58;20.80;53.60
24144;DHT22;12307;50.828;6.080;2022-12-20T10:50:24;20.90;53.50
24144;DHT22;12307;50.828;6.080;2022-12-20T10:53:15;20.90;53.50
24144;DHT22;12307;50.828;6.080;2022-12-20T10:55:45;20.90;53.60
24144;DHT22;12307;50.828;6.080;2022-12-20T10:58:15;20.90;53.50
24144;DHT22;12307;50.828;6.080;2022-12-20T11:00:41;20.90;53.50
24144;DHT22;12307;50.828;6.080;2022-12-20T11:03:14;20.90;53.40
24144;DHT22;12307;50.828;6.080;2022-12-20T11:05:52;20.90;53.40
24144;DHT22;12307;50.828;6.080;2022-12-20T11:08:20;20.90;53.50
24144;DHT22;12307;50.828;6.080;2022-12-20T11:10:47;20.90;53.50
24144;DHT22;12307;50.828;6.080;2022-12-20T11:13:21;20.90;53.60
24144;DHT22;12307;50.828;6.080;2022-12-20T11:15:48;20.90;53.70
24144;DHT22;12307;50.828;6.080;2022-12-20T11:18:19;20.80;53.70
24144;DHT22;12307;50.828;6.080;2022-12-20T11:20:51;20.80;53.80
24144;DHT22;12307;50.828;6.080;2022-12-20T11:23:28;20.80;54.00
24144;DHT22;12307;50.828;6.080;2022-12-20T11:26:08;20.70;54.10
24144;DHT22;12307;50.828;6.080;2022-12-20T11:28:47;20.70;54.20
24144;DHT22;12307;50.828;6.080;2022-12-20T11:31:22;20.70;54.30
24144;DHT22;12307;50.828;6.080;2022-12-20T11:34:08;20.70;54.40
24144;DHT22;12307;50.828;6.080;2022-12-20T11:37:01;20.60;54.40
24144;DHT22;12307;50.828;6.080;2022-12-20T11:39:33;20.60;54.60
24144;DHT22;12307;50.828;6.080;2022-12-20T11:42:06;20.60;54.60
24144;DHT22;12307;50.828;6.080;2022-12-20T11:44:46;20.60;54.60
24144;DHT22;12307;50.828;6.080;2022-12-20T11:47:32;20.60;54.70
24144;DHT22;12307;50.828;6.080;2022-12-20T11:50:17;20.50;54.70
24144;DHT22;12307;50.828;6.080;2022-12-20T11:52:48;20.50;54.80
24144;DHT22;12307;50.828;6.080;2022-12-20T11:55:18;20.50;54.90
24144;DHT22;12307;50.828;6.080;2022-12-20T11:57:54;20.50;54.90
24144;DHT22;12307;50.828;6.080;2022-12-20T12:00:22;20.50;54.90
24144;DHT22;12307;50.828;6.080;2022-12-20T12:02:53;20.40;54.90
24144;DHT22;12307;50.828;6.080;2022-12-20T12:05:25;20.50;55.10
24144;DHT22;12307;50.828;6.080;2022-12-20T12:07:56;20.50;55.10
24144;DHT22;12307;50.828;6.080;2022-12-20T12:10:24;20.40;55.00
24144;DHT22;12307;50.828;6.080;2022-12-20T12:12:57;20.40;55.10
24144;DHT22;12307;50.828;6.080;2022-12-20T12:15:30;20.50;55.20
24144;DHT22;12307;50.828;6.080;2022-12-20T12:18:00;20.50;55.20
24144;DHT22;12307;50.828;6.080;2022-12-20T12:20:35;20.40;55.20
24144;DHT22;12307;50.828;6.080;2022-12-20T12:23:09;20.40;55.30
24144;DHT22;12307;50.828;6.080;2022-12-20T12:25:37;20.40;55.50
24144;DHT22;12307;50.828;6.080;2022-12-20T12:28:04;20.40;55.60
24144;DHT22;12307;50.828;6.080;2022-12-20T12:30:35;20.40;55.60
24144;DHT22;12307;50.828;6.080;2022-12-20T12:33:05;20.40;55.70
24144;DHT22;12307;50.828;6.080;2022-12-20T12:35:51;20.40;55.60
24144;DHT22;12307;50.828;6.080;2022-12-20T12:38:39;20.40;55.70
24144;DHT22;12307;50.828;6.080;2022-12-20T12:41:30;20.40;55.60
24144;DHT22;12307;50.828;6.080;2022-12-20T12:44:03;20.40;55.70
24144;DHT22;12307;50.828;6.080;2022-12-20T12:46:47;20.40;55.70
24144;DHT22;12307;50.828;6.080;2022-12-20T12:49:17;20.40;55.70
24144;DHT22;12307;50.828;6.080;2022-12-20T12:51:50;20.40;55.80
24144;DHT22;12307;50.828;6.080;2022-12-20T12:54:20;20.40;55.80
24144;DHT22;12307;50.828;6.080;2022-12-20T12:56:47;20.50;55.90
24144;DHT22;12307;50.828;6.080;2022-12-20T12:59:43;20.40;55.80
24144;DHT22;12307;50.828;6.080;2022-12-20T13:02:33;20.40;55.80
24144;DHT22;12307;50.828;6.080;2022-12-20T13:05:03;20.40;55.90
24144;DHT22;12307;50.828;6.080;2022-12-20T13:07:46;20.40;55.80
24144;DHT22;12307;50.828;6.080;2022-12-20T13:13:21;20.40;55.80
24144;DHT22;12307;50.828;6.080;2022-12-20T13:19:10;20.40;55.90
24144;DHT22;12307;50.828;6.080;2022-12-20T13:21:37;20.40;55.90
24144;DHT22;12307;50.828;6.080;2022-12-20T13:27:23;20.40;55.90
24144;DHT22;12307;50.828;6.080;2022-12-20T13:30:23;20.40;55.80
24144;DHT22;12307;50.828;6.080;2022-12-20T13:32:56;20.30;55.80
24144;DHT22;12307;50.828;6.080;2022-12-20T13:35:42;20.30;55.90
24144;DHT22;12307;50.828;6.080;2022-12-20T13:38:36;20.30;55.90
24144;DHT22;12307;50.828;6.080;2022-12-20T13:41:14;20.30;56.00
24144;DHT22;12307;50.828;6.080;2022-12-20T13:43:43;20.30;56.70
24144;DHT22;12307;50.828;6.080;2022-12-20T13:46:13;20.30;55.90
24144;DHT22;12307;50.828;6.080;2022-12-20T13:48:48;20.30;55.90
24144;DHT22;12307;50.828;6.080;2022-12-20T13:51:17;20.30;55.90
24144;DHT22;12307;50.828;6.080;2022-12-20T13:53:50;20.30;55.90
24144;DHT22;12307;50.828;6.080;2022-12-20T13:56:36;20.30;56.00
24144;DHT22;12307;50.828;6.080;2022-12-20T13:59:06;20.20;56.00
24144;DHT22;12307;50.828;6.080;2022-12-20T14:01:46;20.20;56.00
24144;DHT22;12307;50.828;6.080;2022-12-20T14:04:12;20.20;56.00
24144;DHT22;12307;50.828;6.080;2022-12-20T14:06:40;20.20;56.00
24144;DHT22;12307;50.828;6.080;2022-12-20T14:09:26;20.20;56.00
24144;DHT22;12307;50.828;6.080;2022-12-20T14:11:52;20.20;56.00
24144;DHT22;12307;50.828;6.080;2022-12-20T14:14:18;20.20;56.00
24144;DHT22;12307;50.828;6.080;2022-12-20T14:16:43;20.20;56.00
24144;DHT22;12307;50.828;6.080;2022-12-20T14:19:13;20.20;56.00
24144;DHT22;12307;50.828;6.080;2022-12-20T14:21:42;20.20;55.90
24144;DHT22;12307;50.828;6.080;2022-12-20T14:24:13;20.20;55.90
24144;DHT22;12307;50.828;6.080;2022-12-20T14:26:41;20.20;55.90
24144;DHT22;12307;50.828;6.080;2022-12-20T14:29:17;20.20;55.90
24144;DHT22;12307;50.828;6.080;2022-12-20T14:31:44;20.20;55.90
24144;DHT22;12307;50.828;6.080;2022-12-20T14:34:14;20.20;55.90
24144;DHT22;12307;50.828;6.080;2022-12-20T14:36:43;20.20;55.90
24144;DHT22;12307;50.828;6.080;2022-12-20T14:39:22;20.20;56.20
24144;DHT22;12307;50.828;6.080;2022-12-20T14:41:55;20.20;56.20
24144;DHT22;12307;50.828;6.080;2022-12-20T14:44:22;20.20;56.20
24144;DHT22;12307;50.828;6.080;2022-12-20T14:46:53;20.20;56.30
24144;DHT22;12307;50.828;6.080;2022-12-20T14:49:22;20.20;56.30
24144;DHT22;12307;50.828;6.080;2022-12-20T14:51:51;20.10;56.20
24144;DHT22;12307;50.828;6.080;2022-12-20T14:54:19;20.20;56.20
24144;DHT22;12307;50.828;6.080;2022-12-20T14:56:47;20.10;56.10
24144;DHT22;12307;50.828;6.080;2022-12-20T14:59:16;20.10;56.30
24144;DHT22;12307;50.828;6.080;2022-12-20T15:01:42;20.10;56.30
24144;DHT22;12307;50.828;6.080;2022-12-20T15:04:22;20.10;56.30
24144;DHT22;12307;50.828;6.080;2022-12-20T15:06:50;20.10;57.00
24144;DHT22;12307;50.828;6.080;2022-12-20T15:09:17;20.10;56.30
24144;DHT22;12307;50.828;6.080;2022-12-20T15:11:44;20.10;56.30
24144;DHT22;12307;50.828;6.080;2022-12-20T15:14:24;20.10;56.40
24144;DHT22;12307;50.828;6.080;2022-12-20T15:16:53;20.10;56.50
24144;DHT22;12307;50.828;6.080;2022-12-20T15:19:18;20.10;56.30
24144;DHT22;12307;50.828;6.080;2022-12-20T15:21:44;20.10;56.40
24144;DHT22;12307;50.828;6.080;2022-12-20T15:24:14;20.10;56.30
24144;DHT22;12307;50.828;6.080;2022-12-20T15:26:40;20.10;56.40
24144;DHT22;12307;50.828;6.080;2022-12-20T15:29:06;20.10;57.00
24144;DHT22;12307;50.828;6.080;2022-12-20T15:31:34;20.10;56.30
24144;DHT22;12307;50.828;6.080;2022-12-20T15:34:00;20.10;56.40
24144;DHT22;12307;50.828;6.080;2022-12-20T15:36:30;20.10;56.40
24144;DHT22;12307;50.828;6.080;2022-12-20T15:38:57;20.10;56.50
24144;DHT22;12307;50.828;6.080;2022-12-20T15:41:27;20.10;56.70
24144;DHT22;12307;50.828;6.080;2022-12-20T15:43:54;20.10;56.70
24144;DHT22;12307;50.828;6.080;2022-12-20T15:46:21;20.10;56.70
24144;DHT22;12307;50.828;6.080;2022-12-20T15:48:46;20.10;56.70
24144;DHT22;12307;50.828;6.080;2022-12-20T15:51:15;20.10;56.60
24144;DHT22;12307;50.828;6.080;2022-12-20T15:53:41;20.10;56.70
24144;DHT22;12307;50.828;6.080;2022-12-20T15:56:15;20.10;56.60